Aviation Digital Data Service (ADDS)

Output produced by METARs form (1412 UTC 24 August 2019)
found at http://www.aviationweather.gov/metar/data/
 
METAR text: MMPB 241341Z 34006KT 7SM FEW090 SCT220 13/11 A3039 RMK 8/032 HZY
Conditions at: MMPB (PUEBLA , MX) observed 1341 UTC 24 August 2019
Temperature: 13.0°C (55°F)
Dewpoint: 11.0°C (52°F) [RH = 88%]
Pressure (altimeter): 30.39 inches Hg (1029.2 mb)
Winds: from the NNW (340 degrees) at 7 MPH (6 knots; 3.1 m/s)
Visibility: 7 miles (11 km)
Ceiling: at least 12,000 feet AGL
Clouds: few clouds at 9000 feet AGL
scattered clouds at 22000 feet AGL
Weather: no significant weather observed at this time

METAR text: MMPB 241158Z RTD 32004KT 6SM SKC 10/09 A3036 RMK BR HZ RTS
Conditions at: MMPB (PUEBLA , MX) observed 1158 UTC 24 August 2019
Temperature: 10.0°C (50°F)
Dewpoint: 9.0°C (48°F) [RH = 93%]
Pressure (altimeter): 30.36 inches Hg (1028.2 mb)
Winds: from the NW (320 degrees) at 5 MPH (4 knots; 2.1 m/s)
Visibility: 6 miles (10 km)
Ceiling: at least 12,000 feet AGL
Clouds: clear skies
Weather: no significant weather observed at this time

METAR text: MMPB 240146Z 03003KT 3SM RA SCT015CB BKN080 OVC220 14/13 A3033 RMK 8/963 RAB42
Conditions at: MMPB (PUEBLA , MX) observed 0146 UTC 24 August 2019
Temperature: 14.0°C (57°F)
Dewpoint: 13.0°C (55°F) [RH = 94%]
Pressure (altimeter): 30.33 inches Hg (1027.2 mb)
Winds: from the NNE (30 degrees) at 3 MPH (3 knots; 1.5 m/s)
Visibility: 3 miles ( 5 km)
Ceiling: 8000 feet AGL
Clouds: scattered clouds at 1500 feet AGL
broken clouds at 8000 feet AGL
overcast cloud deck at 22000 feet AGL
Weather: RA  (moderate rain)

METAR text: MMPB 240046Z 12003KT 4SM -RA SCT015CB BKN080 OVC220 14/12 A3033 RMK 8/963 HZY
Conditions at: MMPB (PUEBLA , MX) observed 0046 UTC 24 August 2019
Temperature: 14.0°C (57°F)
Dewpoint: 12.0°C (54°F) [RH = 88%]
Pressure (altimeter): 30.33 inches Hg (1027.2 mb)
Winds: from the ESE (120 degrees) at 3 MPH (3 knots; 1.5 m/s)
Visibility: 4 miles ( 6 km)
Ceiling: 8000 feet AGL
Clouds: scattered clouds at 1500 feet AGL
broken clouds at 8000 feet AGL
overcast cloud deck at 22000 feet AGL
Weather: -RA  (light rain)

METAR text: MMPB 232346Z 30004KT 4SM -RA SCT020CB BKN080 OVC230 14/12 A3031 RMK 8/963 HZY
Conditions at: MMPB (PUEBLA , MX) observed 2346 UTC 23 August 2019
Temperature: 14.0°C (57°F)
Dewpoint: 12.0°C (54°F) [RH = 88%]
Pressure (altimeter): 30.31 inches Hg (1026.5 mb)
Winds: from the WNW (300 degrees) at 5 MPH (4 knots; 2.1 m/s)
Visibility: 4 miles ( 6 km)
Ceiling: 8000 feet AGL
Clouds: scattered clouds at 2000 feet AGL
broken clouds at 8000 feet AGL
overcast cloud deck at 23000 feet AGL
Weather: -RA  (light rain)

METAR text: MMPB 232309Z 34012KT 5SM RA BKN020CB OVC080 15/12 A3029 RMK 8/36/ RAB08
Conditions at: MMPB (PUEBLA , MX) observed 2309 UTC 23 August 2019
Temperature: 15.0°C (59°F)
Dewpoint: 12.0°C (54°F) [RH = 82%]
Pressure (altimeter): 30.29 inches Hg (1025.8 mb)
Winds: from the NNW (340 degrees) at 14 MPH (12 knots; 6.2 m/s)
Visibility: 5 miles ( 8 km)
Ceiling: 2000 feet AGL
Clouds: broken clouds at 2000 feet AGL
overcast cloud deck at 8000 feet AGL
Weather: RA  (moderate rain)

METAR text: MMPB 232243Z 02010G21KT 8SM BKN020CB OVC080 16/09 A3029 RMK 8/36/ HZY PCPN N
Conditions at: MMPB (PUEBLA , MX) observed 2243 UTC 23 August 2019
Temperature: 16.0°C (61°F)
Dewpoint: 9.0°C (48°F) [RH = 63%]
Pressure (altimeter): 30.29 inches Hg (1025.8 mb)
Winds: from the NNE (20 degrees) at 12 MPH (10 knots; 5.1 m/s)
gusting to 24 MPH (21 knots; 10.8 m/s)
Visibility: 8 miles (13 km)
Ceiling: 2000 feet AGL
Clouds: broken clouds at 2000 feet AGL
overcast cloud deck at 8000 feet AGL
Weather: no significant weather observed at this time

METAR text: MMPB 232142Z 17010KT 10SM SCT025 SCT100 BKN230 22/14 A3026 RMK 8/232 HZY
Conditions at: MMPB (PUEBLA , MX) observed 2142 UTC 23 August 2019
Temperature: 22.0°C (72°F)
Dewpoint: 14.0°C (57°F) [RH = 60%]
Pressure (altimeter): 30.26 inches Hg (1024.8 mb)
Winds: from the S (170 degrees) at 12 MPH (10 knots; 5.1 m/s)
Visibility: 10 or more miles (16+ km)
Ceiling: 23000 feet AGL
Clouds: scattered clouds at 2500 feet AGL
scattered clouds at 10000 feet AGL
broken clouds at 23000 feet AGL
Weather: no significant weather observed at this time

METAR text: MMPB 232049Z 21012KT 10SM SCT025 SCT100 BKN230 22/14 A3026 RMK 8/232 HZY
Conditions at: MMPB (PUEBLA , MX) observed 2049 UTC 23 August 2019
Temperature: 22.0°C (72°F)
Dewpoint: 14.0°C (57°F) [RH = 60%]
Pressure (altimeter): 30.26 inches Hg (1024.8 mb)
Winds: from the SSW (210 degrees) at 14 MPH (12 knots; 6.2 m/s)
Visibility: 10 or more miles (16+ km)
Ceiling: 23000 feet AGL
Clouds: scattered clouds at 2500 feet AGL
scattered clouds at 10000 feet AGL
broken clouds at 23000 feet AGL
Weather: no significant weather observed at this time

METAR text: MMPB 231950Z 18011KT 10SM SCT025 SCT100 BKN230 23/12 A3028 RMK 8/232 HZY
Conditions at: MMPB (PUEBLA , MX) observed 1950 UTC 23 August 2019
Temperature: 23.0°C (73°F)
Dewpoint: 12.0°C (54°F) [RH = 50%]
Pressure (altimeter): 30.28 inches Hg (1025.5 mb)
Winds: from the S (180 degrees) at 13 MPH (11 knots; 5.7 m/s)
Visibility: 10 or more miles (16+ km)
Ceiling: 23000 feet AGL
Clouds: scattered clouds at 2500 feet AGL
scattered clouds at 10000 feet AGL
broken clouds at 23000 feet AGL
Weather: no significant weather observed at this time

METAR text: MMPB 231840Z 15009KT 10SM SCT020 SCT090 22/13 A3032 RMK 8/120 HZY
Conditions at: MMPB (PUEBLA , MX) observed 1840 UTC 23 August 2019
Temperature: 22.0°C (72°F)
Dewpoint: 13.0°C (55°F) [RH = 57%]
Pressure (altimeter): 30.32 inches Hg (1026.8 mb)
Winds: from the SSE (150 degrees) at 10 MPH (9 knots; 4.6 m/s)
Visibility: 10 or more miles (16+ km)
Ceiling: at least 12,000 feet AGL
Clouds: scattered clouds at 2000 feet AGL
scattered clouds at 9000 feet AGL
Weather: no significant weather observed at this time

METAR text: MMPB 231742Z 10004KT 11SM SCT020 SCT090 21/12 A3034 RMK 8/130
Conditions at: MMPB (PUEBLA , MX) observed 1742 UTC 23 August 2019
Temperature: 21.0°C (70°F)
Dewpoint: 12.0°C (54°F) [RH = 56%]
Pressure (altimeter): 30.34 inches Hg (1027.5 mb)
Winds: from the E (100 degrees) at 5 MPH (4 knots; 2.1 m/s)
Visibility: 11 miles (18 km)
Ceiling: at least 12,000 feet AGL
Clouds: scattered clouds at 2000 feet AGL
scattered clouds at 9000 feet AGL
Weather: no significant weather observed at this time

METAR text: MMPB 231649Z 00000KT 11SM SCT020 20/12 A3036 RMK 8/100 CI
Conditions at: MMPB (PUEBLA , MX) observed 1649 UTC 23 August 2019
Temperature: 20.0°C (68°F)
Dewpoint: 12.0°C (54°F) [RH = 60%]
Pressure (altimeter): 30.36 inches Hg (1028.2 mb)
Winds: calm
Visibility: 11 miles (18 km)
Ceiling: at least 12,000 feet AGL
Clouds: scattered clouds at 2000 feet AGL
Weather: no significant weather observed at this time

METAR text: MMPB 231545Z 00000KT 11SM BKN015 18/12 A3036 RMK 8/100 CI
Conditions at: MMPB (PUEBLA , MX) observed 1545 UTC 23 August 2019
Temperature: 18.0°C (64°F)
Dewpoint: 12.0°C (54°F) [RH = 68%]
Pressure (altimeter): 30.36 inches Hg (1028.2 mb)
Winds: calm
Visibility: 11 miles (18 km)
Ceiling: 1500 feet AGL
Clouds: broken clouds at 1500 feet AGL
Weather: no significant weather observed at this time

METAR text: MMPB 231454Z 00000KT 10SM SCT015 17/13 A3035 RMK 8/100 HZY
Conditions at: MMPB (PUEBLA , MX) observed 1454 UTC 23 August 2019
Temperature: 17.0°C (63°F)
Dewpoint: 13.0°C (55°F) [RH = 77%]
Pressure (altimeter): 30.35 inches Hg (1027.9 mb)
Winds: calm
Visibility: 10 or more miles (16+ km)
Ceiling: at least 12,000 feet AGL
Clouds: scattered clouds at 1500 feet AGL
Weather: no significant weather observed at this time

METAR text: MMPB 231343Z 03005KT 8SM FEW020 SCT090 15/13 A3034 RMK 8/530 HZY
Conditions at: MMPB (PUEBLA , MX) observed 1343 UTC 23 August 2019
Temperature: 15.0°C (59°F)
Dewpoint: 13.0°C (55°F) [RH = 88%]
Pressure (altimeter): 30.34 inches Hg (1027.5 mb)
Winds: from the NNE (30 degrees) at 6 MPH (5 knots; 2.6 m/s)
Visibility: 8 miles (13 km)
Ceiling: at least 12,000 feet AGL
Clouds: few clouds at 2000 feet AGL
scattered clouds at 9000 feet AGL
Weather: no significant weather observed at this time

METAR text: MMPB 230959Z RTD 14004KT 8SM RA OVC010CB 13/12 A3036 RMK 8/9// RTS
Conditions at: MMPB (PUEBLA , MX) observed 0959 UTC 23 August 2019
Temperature: 13.0°C (55°F)
Dewpoint: 12.0°C (54°F) [RH = 94%]
Pressure (altimeter): 30.36 inches Hg (1028.2 mb)
Winds: from the SE (140 degrees) at 5 MPH (4 knots; 2.1 m/s)
Visibility: 8 miles (13 km)
Ceiling: 1000 feet AGL
Clouds: overcast cloud deck at 1000 feet AGL
Weather: RA  (moderate rain)

Forecast for: MMPB (PUEBLA , MX)
Text: TAF MMPB 240523Z 2406/2506 15005KT P6SM SCT020 BKN250
Forecast period: 0600 to 1800 UTC 24 August 2019
Forecast type: FROM: standard forecast or significant change
Winds: from the SSE (150 degrees) at 6 MPH (5 knots; 2.6 m/s)
Visibility: 6 or more miles 10+ km)
Ceiling: 25000 feet AGL
Clouds: scattered clouds at 2000 feet AGL
broken clouds at 25000 feet AGL
Weather: no significant weather forecast for this period
Text: TEMPO 2411/2415 4SM HZ BKN015
Forecast period: 1100 to 1500 UTC 24 August 2019
Forecast type: TEMPORARY: The following changes expected for less than half the time period
Visibility: 4 miles (6 km)
Ceiling: 1500 feet AGL
Clouds: broken clouds at 1500 feet AGL
Weather: HZ  (haze)
Text: FM241800 02014KT P6SM SCT025CB BKN080 OVC250
Forecast period: 1800 UTC 24 August 2019 to 0600 UTC 25 August 2019
Forecast type: FROM: standard forecast or significant change
Winds: from the NNE (20 degrees) at 16 MPH (14 knots; 7.2 m/s)
Visibility: 6 or more miles 10+ km)
Ceiling: 8000 feet AGL
Clouds: scattered clouds at 2500 feet AGL
broken clouds at 8000 feet AGL
overcast cloud deck at 25000 feet AGL
Weather: no significant weather forecast for this period
Text: TEMPO 2500/2504 3SM TSRA BKN020CB
Forecast period: 0000 to 0400 UTC 25 August 2019
Forecast type: TEMPORARY: The following changes expected for less than half the time period
Visibility: 3 miles (5 km)
Ceiling: 2000 feet AGL
Clouds: broken clouds at 2000 feet AGL
Weather: TSRA  (rain associated with thunderstorm(s))